sensor_id;sensor_type;location;lat;lon;timestamp;temperature;humidity
1417;DHT22;703;51.162;13.574;2023-11-18T08:58:20;4.50;99.90
1417;DHT22;703;51.162;13.574;2023-11-18T09:00:49;4.50;99.90
1417;DHT22;703;51.162;13.574;2023-11-18T09:03:19;4.40;99.90
1417;DHT22;703;51.162;13.574;2023-11-18T09:06:01;4.50;99.90
1417;DHT22;703;51.162;13.574;2023-11-18T09:11:03;4.60;99.90
1417;DHT22;703;51.162;13.574;2023-11-18T09:13:30;4.70;99.90
1417;DHT22;703;51.162;13.574;2023-11-18T09:15:58;4.80;99.90
1417;DHT22;703;51.162;13.574;2023-11-18T09:18:26;4.90;99.90
1417;DHT22;703;51.162;13.574;2023-11-18T09:20:53;5.00;99.90
1417;DHT22;703;51.162;13.574;2023-11-18T09:23:20;6.40;99.90
1417;DHT22;703;51.162;13.574;2023-11-18T09:25:46;4.90;99.90
1417;DHT22;703;51.162;13.574;2023-11-18T09:28:14;4.90;99.90
1417;DHT22;703;51.162;13.574;2023-11-18T09:30:40;4.90;99.90
1417;DHT22;703;51.162;13.574;2023-11-18T09:33:16;5.00;99.90
1417;DHT22;703;51.162;13.574;2023-11-18T09:35:53;5.00;99.90
1417;DHT22;703;51.162;13.574;2023-11-18T09:40:53;5.30;99.90
1417;DHT22;703;51.162;13.574;2023-11-18T09:43:19;5.40;99.90
1417;DHT22;703;51.162;13.574;2023-11-18T09:45:56;5.30;99.90
1417;DHT22;703;51.162;13.574;2023-11-18T09:48:22;5.30;99.90
1417;DHT22;703;51.162;13.574;2023-11-18T09:50:52;5.40;99.90
1417;DHT22;703;51.162;13.574;2023-11-18T09:53:19;5.30;99.90
1417;DHT22;703;51.162;13.574;2023-11-18T09:56:03;5.30;99.90
1417;DHT22;703;51.162;13.574;2023-11-18T09:58:40;5.40;99.90
1417;DHT22;703;51.162;13.574;2023-11-18T10:01:10;5.50;99.90
1417;DHT22;703;51.162;13.574;2023-11-18T10:03:40;5.80;99.90
1417;DHT22;703;51.162;13.574;2023-11-18T10:06:07;5.80;99.90
1417;DHT22;703;51.162;13.574;2023-11-18T10:08:35;5.80;99.90
1417;DHT22;703;51.162;13.574;2023-11-18T10:11:04;5.80;99.90
1417;DHT22;703;51.162;13.574;2023-11-18T10:13:34;5.00;99.90
1417;DHT22;703;51.162;13.574;2023-11-18T10:16:03;5.90;99.90
1417;DHT22;703;51.162;13.574;2023-11-18T10:18:30;6.00;99.90
1417;DHT22;703;51.162;13.574;2023-11-18T10:21:00;6.00;99.90
1417;DHT22;703;51.162;13.574;2023-11-18T10:23:26;5.90;99.90
1417;DHT22;703;51.162;13.574;2023-11-18T10:25:54;5.90;99.90
1417;DHT22;703;51.162;13.574;2023-11-18T10:31:04;6.10;99.90
1417;DHT22;703;51.162;13.574;2023-11-18T10:33:38;6.20;99.90
1417;DHT22;703;51.162;13.574;2023-11-18T10:36:20;6.20;99.90
1417;DHT22;703;51.162;13.574;2023-11-18T10:38:48;6.10;99.90
1417;DHT22;703;51.162;13.574;2023-11-18T10:41:20;6.10;99.90
1417;DHT22;703;51.162;13.574;2023-11-18T10:43:45;6.20;99.90
1417;DHT22;703;51.162;13.574;2023-11-18T10:46:14;6.20;99.90
1417;DHT22;703;51.162;13.574;2023-11-18T10:48:50;6.10;99.90
1417;DHT22;703;51.162;13.574;2023-11-18T10:51:17;6.10;99.90
1417;DHT22;703;51.162;13.574;2023-11-18T10:53:47;6.20;99.90
1417;DHT22;703;51.162;13.574;2023-11-18T10:56:22;6.30;99.90
1417;DHT22;703;51.162;13.574;2023-11-18T10:58:58;6.40;99.90
1417;DHT22;703;51.162;13.574;2023-11-18T11:01:31;6.30;99.90
1417;DHT22;703;51.162;13.574;2023-11-18T11:03:57;6.40;99.90
1417;DHT22;703;51.162;13.574;2023-11-18T11:06:24;6.50;99.90
1417;DHT22;703;51.162;13.574;2023-11-18T11:08:53;6.50;99.90
1417;DHT22;703;51.162;13.574;2023-11-18T11:11:22;6.50;99.90
1417;DHT22;703;51.162;13.574;2023-11-18T11:13:56;6.40;99.90
1417;DHT22;703;51.162;13.574;2023-11-18T11:16:25;6.60;99.90
1417;DHT22;703;51.162;13.574;2023-11-18T11:18:55;6.70;99.90
1417;DHT22;703;51.162;13.574;2023-11-18T11:21:26;6.90;99.90
1417;DHT22;703;51.162;13.574;2023-11-18T11:23:59;6.70;99.90
1417;DHT22;703;51.162;13.574;2023-11-18T11:26:52;6.70;99.90
1417;DHT22;703;51.162;13.574;2023-11-18T11:29:40;6.70;99.90
1417;DHT22;703;51.162;13.574;2023-11-18T11:32:18;6.50;99.90
1417;DHT22;703;51.162;13.574;2023-11-18T11:34:54;6.50;99.90
1417;DHT22;703;51.162;13.574;2023-11-18T11:37:24;6.50;99.90
1417;DHT22;703;51.162;13.574;2023-11-18T11:39:51;6.50;99.90
1417;DHT22;703;51.162;13.574;2023-11-18T11:42:20;6.50;99.90
1417;DHT22;703;51.162;13.574;2023-11-18T11:44:48;6.40;99.90
1417;DHT22;703;51.162;13.574;2023-11-18T11:47:13;6.40;99.90
1417;DHT22;703;51.162;13.574;2023-11-18T11:49:55;6.50;99.90
1417;DHT22;703;51.162;13.574;2023-11-18T11:52:33;6.60;99.90
1417;DHT22;703;51.162;13.574;2023-11-18T11:55:37;6.60;99.90
1417;DHT22;703;51.162;13.574;2023-11-18T11:58:04;6.60;99.90
1417;DHT22;703;51.162;13.574;2023-11-18T12:00:31;6.60;99.90
1417;DHT22;703;51.162;13.574;2023-11-18T12:03:01;6.50;99.90
1417;DHT22;703;51.162;13.574;2023-11-18T12:05:30;6.50;99.90
1417;DHT22;703;51.162;13.574;2023-11-18T12:07:58;6.50;99.90
1417;DHT22;703;51.162;13.574;2023-11-18T12:10:31;6.70;99.90
1417;DHT22;703;51.162;13.574;2023-11-18T12:13:10;6.80;99.90
1417;DHT22;703;51.162;13.574;2023-11-18T12:15:52;6.80;99.90
1417;DHT22;703;51.162;13.574;2023-11-18T12:18:29;7.00;99.90
1417;DHT22;703;51.162;13.574;2023-11-18T12:20:59;6.90;99.90
1417;DHT22;703;51.162;13.574;2023-11-18T12:23:28;6.80;99.90
1417;DHT22;703;51.162;13.574;2023-11-18T12:25:57;6.90;99.90
1417;DHT22;703;51.162;13.574;2023-11-18T12:28:32;6.90;99.90
1417;DHT22;703;51.162;13.574;2023-11-18T12:31:04;6.80;99.90
1417;DHT22;703;51.162;13.574;2023-11-18T12:34:01;6.70;99.90
1417;DHT22;703;51.162;13.574;2023-11-18T12:39:32;6.80;99.90
1417;DHT22;703;51.162;13.574;2023-11-18T12:42:04;6.60;99.90
1417;DHT22;703;51.162;13.574;2023-11-18T12:44:36;6.70;99.90
1417;DHT22;703;51.162;13.574;2023-11-18T12:47:08;6.60;99.90
1417;DHT22;703;51.162;13.574;2023-11-18T12:49:48;6.50;99.90
1417;DHT22;703;51.162;13.574;2023-11-18T12:52:20;6.70;99.90
1417;DHT22;703;51.162;13.574;2023-11-18T12:54:47;6.60;99.90
1417;DHT22;703;51.162;13.574;2023-11-18T12:57:17;6.50;99.90
1417;DHT22;703;51.162;13.574;2023-11-18T12:59:44;6.50;99.90
1417;DHT22;703;51.162;13.574;2023-11-18T13:02:11;6.60;99.90
1417;DHT22;703;51.162;13.574;2023-11-18T13:04:46;7.00;99.90
1417;DHT22;703;51.162;13.574;2023-11-18T13:07:18;6.50;99.90
1417;DHT22;703;51.162;13.574;2023-11-18T13:09:44;6.50;99.90
1417;DHT22;703;51.162;13.574;2023-11-18T13:12:11;6.50;99.90
1417;DHT22;703;51.162;13.574;2023-11-18T13:14:41;6.50;99.90
1417;DHT22;703;51.162;13.574;2023-11-18T13:17:12;6.40;99.90
1417;DHT22;703;51.162;13.574;2023-11-18T13:19:39;6.50;99.90
1417;DHT22;703;51.162;13.574;2023-11-18T13:22:06;6.50;99.90
1417;DHT22;703;51.162;13.574;2023-11-18T13:24:36;6.50;99.90
1417;DHT22;703;51.162;13.574;2023-11-18T13:27:13;6.50;99.90
1417;DHT22;703;51.162;13.574;2023-11-18T13:29:43;6.50;99.90
1417;DHT22;703;51.162;13.574;2023-11-18T13:32:11;6.50;99.90
1417;DHT22;703;51.162;13.574;2023-11-18T13:34:38;6.40;99.90
1417;DHT22;703;51.162;13.574;2023-11-18T13:37:08;6.40;99.90
1417;DHT22;703;51.162;13.574;2023-11-18T13:39:36;6.30;99.90
1417;DHT22;703;51.162;13.574;2023-11-18T13:42:20;6.20;99.90
1417;DHT22;703;51.162;13.574;2023-11-18T13:44:46;6.10;99.90
1417;DHT22;703;51.162;13.574;2023-11-18T13:47:13;6.00;99.90
1417;DHT22;703;51.162;13.574;2023-11-18T13:49:39;5.90;99.90
1417;DHT22;703;51.162;13.574;2023-11-18T13:52:08;5.90;99.90
1417;DHT22;703;51.162;13.574;2023-11-18T13:54:39;5.90;99.90
1417;DHT22;703;51.162;13.574;2023-11-18T13:57:05;5.80;99.90
1417;DHT22;703;51.162;13.574;2023-11-18T13:59:32;5.70;99.90
1417;DHT22;703;51.162;13.574;2023-11-18T14:01:58;5.90;99.90
1417;DHT22;703;51.162;13.574;2023-11-18T14:04:27;5.90;99.90
1417;DHT22;703;51.162;13.574;2023-11-18T14:06:57;6.40;94.20
1417;DHT22;703;51.162;13.574;2023-11-18T14:09:22;5.70;54.50
1417;DHT22;703;51.162;13.574;2023-11-18T14:11:51;7.60;1.00
1417;DHT22;703;51.162;13.574;2023-11-18T14:14:17;5.70;57.10
1417;DHT22;703;51.162;13.574;2023-11-18T14:16:43;5.60;99.90
1417;DHT22;703;51.162;13.574;2023-11-18T14:19:09;5.70;99.90
1417;DHT22;703;51.162;13.574;2023-11-18T14:21:36;5.60;99.90
1417;DHT22;703;51.162;13.574;2023-11-18T14:24:02;5.50;99.90
1417;DHT22;703;51.162;13.574;2023-11-18T14:26:28;5.50;99.90
1417;DHT22;703;51.162;13.574;2023-11-18T14:28:54;5.50;72.40
1417;DHT22;703;51.162;13.574;2023-11-18T14:31:21;5.40;99.90
1417;DHT22;703;51.162;13.574;2023-11-18T14:33:47;5.20;99.90
1417;DHT22;703;51.162;13.574;2023-11-18T14:36:13;5.20;99.90
1417;DHT22;703;51.162;13.574;2023-11-18T14:41:06;5.10;99.90
1417;DHT22;703;51.162;13.574;2023-11-18T14:43:33;5.10;99.90
1417;DHT22;703;51.162;13.574;2023-11-18T14:45:59;5.00;99.90
1417;DHT22;703;51.162;13.574;2023-11-18T14:48:25;5.00;99.90
1417;DHT22;703;51.162;13.574;2023-11-18T14:50:50;4.90;99.90
1417;DHT22;703;51.162;13.574;2023-11-18T14:53:16;4.80;99.90
1417;DHT22;703;51.162;13.574;2023-11-18T14:55:41;4.80;99.90
1417;DHT22;703;51.162;13.574;2023-11-18T14:58:07;4.80;99.90
1417;DHT22;703;51.162;13.574;2023-11-18T15:00:32;4.80;99.90
1417;DHT22;703;51.162;13.574;2023-11-18T15:02:58;4.70;99.90
1417;DHT22;703;51.162;13.574;2023-11-18T15:05:25;4.60;99.90
1417;DHT22;703;51.162;13.574;2023-11-18T15:07:52;4.50;99.90
1417;DHT22;703;51.162;13.574;2023-11-18T15:10:19;4.30;99.90
1417;DHT22;703;51.162;13.574;2023-11-18T15:13:05;4.20;99.90
1417;DHT22;703;51.162;13.574;2023-11-18T15:15:31;4.10;99.90
1417;DHT22;703;51.162;13.574;2023-11-18T15:17:58;4.10;99.90
1417;DHT22;703;51.162;13.574;2023-11-18T15:20:24;4.10;99.90
1417;DHT22;703;51.162;13.574;2023-11-18T15:22:51;4.00;99.90
1417;DHT22;703;51.162;13.574;2023-11-18T15:25:17;3.90;99.90
1417;DHT22;703;51.162;13.574;2023-11-18T15:27:46;3.70;99.90
1417;DHT22;703;51.162;13.574;2023-11-18T15:30:13;3.70;99.90
1417;DHT22;703;51.162;13.574;2023-11-18T15:32:43;3.80;99.90
1417;DHT22;703;51.162;13.574;2023-11-18T15:35:09;3.80;99.90
1417;DHT22;703;51.162;13.574;2023-11-18T15:37:36;3.60;99.90
1417;DHT22;703;51.162;13.574;2023-11-18T15:40:04;3.50;99.90
1417;DHT22;703;51.162;13.574;2023-11-18T15:42:36;3.40;99.90
1417;DHT22;703;51.162;13.574;2023-11-18T15:45:03;3.30;99.90
1417;DHT22;703;51.162;13.574;2023-11-18T15:47:28;3.20;99.90
1417;DHT22;703;51.162;13.574;2023-11-18T15:49:54;3.20;99.90
1417;DHT22;703;51.162;13.574;2023-11-18T15:52:19;3.20;99.90
1417;DHT22;703;51.162;13.574;2023-11-18T15:54:45;3.10;99.90
1417;DHT22;703;51.162;13.574;2023-11-18T15:57:12;3.10;99.90
1417;DHT22;703;51.162;13.574;2023-11-18T15:59:38;3.00;99.90
1417;DHT22;703;51.162;13.574;2023-11-18T16:02:04;2.90;99.90
1417;DHT22;703;51.162;13.574;2023-11-18T16:04:31;2.90;99.90
1417;DHT22;703;51.162;13.574;2023-11-18T16:06:56;2.80;99.90
1417;DHT22;703;51.162;13.574;2023-11-18T16:09:22;2.80;99.90
1417;DHT22;703;51.162;13.574;2023-11-18T16:11:47;2.70;99.90
1417;DHT22;703;51.162;13.574;2023-11-18T16:14:14;2.70;99.90
1417;DHT22;703;51.162;13.574;2023-11-18T16:16:42;2.60;99.90
1417;DHT22;703;51.162;13.574;2023-11-18T16:21:39;2.60;99.90
1417;DHT22;703;51.162;13.574;2023-11-18T16:24:04;2.70;99.90
1417;DHT22;703;51.162;13.574;2023-11-18T16:26:30;2.90;99.90
1417;DHT22;703;51.162;13.574;2023-11-18T16:28:55;2.90;99.90
1417;DHT22;703;51.162;13.574;2023-11-18T16:36:20;2.70;99.90
1417;DHT22;703;51.162;13.574;2023-11-18T16:38:53;2.70;99.90
1417;DHT22;703;51.162;13.574;2023-11-18T16:41:23;2.60;99.90
1417;DHT22;703;51.162;13.574;2023-11-18T16:53:33;2.90;99.90
1417;DHT22;703;51.162;13.574;2023-11-18T16:55:58;2.80;99.90
1417;DHT22;703;51.162;13.574;2023-11-18T16:58:24;2.90;99.90
1417;DHT22;703;51.162;13.574;2023-11-18T17:00:50;2.90;99.90
1417;DHT22;703;51.162;13.574;2023-11-18T17:03:17;3.00;99.90
1417;DHT22;703;51.162;13.574;2023-11-18T17:05:43;3.00;99.90
1417;DHT22;703;51.162;13.574;2023-11-18T17:08:09;2.90;99.90
1417;DHT22;703;51.162;13.574;2023-11-18T17:10:35;3.00;99.90
1417;DHT22;703;51.162;13.574;2023-11-18T17:17:54;3.10;99.90
1417;DHT22;703;51.162;13.574;2023-11-18T17:20:26;3.20;99.90
1417;DHT22;703;51.162;13.574;2023-11-18T17:22:52;3.20;99.90
1417;DHT22;703;51.162;13.574;2023-11-18T17:25:18;3.10;99.90
1417;DHT22;703;51.162;13.574;2023-11-18T17:27:45;3.20;99.90
1417;DHT22;703;51.162;13.574;2023-11-18T17:30:12;3.20;99.90
1417;DHT22;703;51.162;13.574;2023-11-18T17:32:41;3.20;99.90
1417;DHT22;703;51.162;13.574;2023-11-18T17:35:08;3.20;99.90
1417;DHT22;703;51.162;13.574;2023-11-18T17:37:37;3.20;99.90
1417;DHT22;703;51.162;13.574;2023-11-18T17:40:03;3.20;99.90
1417;DHT22;703;51.162;13.574;2023-11-18T17:42:29;3.30;99.90
1417;DHT22;703;51.162;13.574;2023-11-18T17:44:54;3.30;99.90
1417;DHT22;703;51.162;13.574;2023-11-18T17:47:20;3.30;99.90
1417;DHT22;703;51.162;13.574;2023-11-18T17:49:47;3.20;99.90
1417;DHT22;703;51.162;13.574;2023-11-18T17:52:12;3.30;99.90
1417;DHT22;703;51.162;13.574;2023-11-18T17:54:39;3.40;99.90
1417;DHT22;703;51.162;13.574;2023-11-18T17:59:31;3.50;99.90
1417;DHT22;703;51.162;13.574;2023-11-18T18:01:56;3.50;99.90
1417;DHT22;703;51.162;13.574;2023-11-18T18:04:22;3.50;99.90
1417;DHT22;703;51.162;13.574;2023-11-18T18:06:48;3.50;99.90
1417;DHT22;703;51.162;13.574;2023-11-18T18:09:13;3.50;99.90
1417;DHT22;703;51.162;13.574;2023-11-18T18:11:41;3.50;99.90
1417;DHT22;703;51.162;13.574;2023-11-18T18:14:07;3.50;99.90
1417;DHT22;703;51.162;13.574;2023-11-18T18:16:33;3.50;99.90
1417;DHT22;703;51.162;13.574;2023-11-18T18:18:58;4.30;99.90
1417;DHT22;703;51.162;13.574;2023-11-18T18:21:25;3.50;99.90
1417;DHT22;703;51.162;13.574;2023-11-18T18:23:51;3.60;99.90
1417;DHT22;703;51.162;13.574;2023-11-18T18:26:17;4.90;99.90
1417;DHT22;703;51.162;13.574;2023-11-18T18:28:43;3.60;99.90
1417;DHT22;703;51.162;13.574;2023-11-18T18:31:08;3.60;99.90
1417;DHT22;703;51.162;13.574;2023-11-18T18:33:35;3.70;99.90
1417;DHT22;703;51.162;13.574;2023-11-18T18:36:00;3.70;99.90
1417;DHT22;703;51.162;13.574;2023-11-18T18:38:26;3.70;99.90
1417;DHT22;703;51.162;13.574;2023-11-18T18:40:51;3.60;99.90
1417;DHT22;703;51.162;13.574;2023-11-18T18:43:17;3.60;99.90
1417;DHT22;703;51.162;13.574;2023-11-18T18:45:43;3.60;99.90
1417;DHT22;703;51.162;13.574;2023-11-18T18:50:35;3.60;99.90
1417;DHT22;703;51.162;13.574;2023-11-18T18:53:03;3.50;99.90
1417;DHT22;703;51.162;13.574;2023-11-18T18:55:28;3.60;99.90
1417;DHT22;703;51.162;13.574;2023-11-18T18:57:54;3.50;99.90
1417;DHT22;703;51.162;13.574;2023-11-18T19:00:20;3.60;99.90
1417;DHT22;703;51.162;13.574;2023-11-18T19:02:46;3.50;99.90
1417;DHT22;703;51.162;13.574;2023-11-18T19:05:12;3.50;99.90
1417;DHT22;703;51.162;13.574;2023-11-18T19:07:40;3.50;99.90
1417;DHT22;703;51.162;13.574;2023-11-18T19:10:06;3.60;99.90
1417;DHT22;703;51.162;13.574;2023-11-18T19:12:33;3.50;99.90
1417;DHT22;703;51.162;13.574;2023-11-18T19:14:59;3.50;99.90
1417;DHT22;703;51.162;13.574;2023-11-18T19:17:29;3.50;99.90
1417;DHT22;703;51.162;13.574;2023-11-18T19:19:54;3.50;99.90
1417;DHT22;703;51.162;13.574;2023-11-18T19:22:20;3.50;99.90
1417;DHT22;703;51.162;13.574;2023-11-18T19:24:45;3.50;99.90
1417;DHT22;703;51.162;13.574;2023-11-18T19:27:12;3.50;99.90
1417;DHT22;703;51.162;13.574;2023-11-18T19:29:39;3.50;99.90
1417;DHT22;703;51.162;13.574;2023-11-18T19:32:05;3.40;99.90
1417;DHT22;703;51.162;13.574;2023-11-18T19:34:31;3.50;99.90
1417;DHT22;703;51.162;13.574;2023-11-18T19:36:57;3.50;99.90
1417;DHT22;703;51.162;13.574;2023-11-18T19:39:22;3.50;99.90
1417;DHT22;703;51.162;13.574;2023-11-18T19:41:49;3.50;99.90
1417;DHT22;703;51.162;13.574;2023-11-18T19:44:15;3.50;99.90
1417;DHT22;703;51.162;13.574;2023-11-18T19:46:41;3.50;99.90
1417;DHT22;703;51.162;13.574;2023-11-18T19:49:08;3.50;99.90
1417;DHT22;703;51.162;13.574;2023-11-18T19:51:35;3.50;99.90
1417;DHT22;703;51.162;13.574;2023-11-18T19:54:00;3.50;99.90
1417;DHT22;703;51.162;13.574;2023-11-18T19:58:52;5.30;99.90
1417;DHT22;703;51.162;13.574;2023-11-18T20:01:17;3.50;99.90
1417;DHT22;703;51.162;13.574;2023-11-18T20:03:43;3.50;99.90
1417;DHT22;703;51.162;13.574;2023-11-18T20:06:09;3.60;99.90
1417;DHT22;703;51.162;13.574;2023-11-18T20:08:34;3.50;99.90
1417;DHT22;703;51.162;13.574;2023-11-18T20:11:00;3.50;99.90
1417;DHT22;703;51.162;13.574;2023-11-18T20:13:25;3.60;99.90
1417;DHT22;703;51.162;13.574;2023-11-18T20:15:51;3.70;99.90
1417;DHT22;703;51.162;13.574;2023-11-18T20:18:19;3.60;99.90
1417;DHT22;703;51.162;13.574;2023-11-18T20:20:45;3.60;99.90
1417;DHT22;703;51.162;13.574;2023-11-18T20:23:10;3.60;99.90
1417;DHT22;703;51.162;13.574;2023-11-18T20:25:38;3.70;99.90
1417;DHT22;703;51.162;13.574;2023-11-18T20:28:05;3.70;99.90
1417;DHT22;703;51.162;13.574;2023-11-18T20:30:30;3.80;99.90
1417;DHT22;703;51.162;13.574;2023-11-18T20:32:56;3.80;99.90
1417;DHT22;703;51.162;13.574;2023-11-18T20:37:52;3.90;99.90
1417;DHT22;703;51.162;13.574;2023-11-18T20:40:17;3.90;99.90
1417;DHT22;703;51.162;13.574;2023-11-18T20:42:49;3.90;99.90
1417;DHT22;703;51.162;13.574;2023-11-18T20:45:15;3.90;99.90
1417;DHT22;703;51.162;13.574;2023-11-18T20:47:44;3.70;99.90
1417;DHT22;703;51.162;13.574;2023-11-18T20:50:09;3.80;99.90
1417;DHT22;703;51.162;13.574;2023-11-18T20:52:39;3.90;99.90
1417;DHT22;703;51.162;13.574;2023-11-18T20:55:05;3.90;99.90
1417;DHT22;703;51.162;13.574;2023-11-18T20:57:34;3.90;99.90
1417;DHT22;703;51.162;13.574;2023-11-18T21:00:00;3.90;99.90
1417;DHT22;703;51.162;13.574;2023-11-18T21:04:51;4.00;99.90
1417;DHT22;703;51.162;13.574;2023-11-18T21:07:17;4.00;99.90
1417;DHT22;703;51.162;13.574;2023-11-18T21:09:42;4.00;99.90
1417;DHT22;703;51.162;13.574;2023-11-18T21:12:08;4.00;99.90
1417;DHT22;703;51.162;13.574;2023-11-18T21:14:33;3.90;99.90
1417;DHT22;703;51.162;13.574;2023-11-18T21:16:59;4.00;99.90
1417;DHT22;703;51.162;13.574;2023-11-18T21:19:26;4.00;99.90
1417;DHT22;703;51.162;13.574;2023-11-18T21:21:52;4.00;99.90
1417;DHT22;703;51.162;13.574;2023-11-18T21:24:18;4.00;99.90
1417;DHT22;703;51.162;13.574;2023-11-18T21:26:43;4.00;99.90
1417;DHT22;703;51.162;13.574;2023-11-18T21:29:10;4.00;99.90
1417;DHT22;703;51.162;13.574;2023-11-18T21:31:37;4.00;99.90
1417;DHT22;703;51.162;13.574;2023-11-18T21:34:02;4.00;99.90
1417;DHT22;703;51.162;13.574;2023-11-18T21:36:30;4.00;99.90
1417;DHT22;703;51.162;13.574;2023-11-18T21:38:56;4.00;99.90
1417;DHT22;703;51.162;13.574;2023-11-18T21:43:47;4.00;99.90
1417;DHT22;703;51.162;13.574;2023-11-18T21:46:13;4.10;99.90
1417;DHT22;703;51.162;13.574;2023-11-18T21:48:39;4.10;99.90
1417;DHT22;703;51.162;13.574;2023-11-18T21:51:06;4.10;99.90
1417;DHT22;703;51.162;13.574;2023-11-18T21:53:33;4.10;99.90
1417;DHT22;703;51.162;13.574;2023-11-18T21:55:59;4.10;99.90
1417;DHT22;703;51.162;13.574;2023-11-18T21:58:25;4.20;99.90
1417;DHT22;703;51.162;13.574;2023-11-18T22:00:51;4.20;99.90
1417;DHT22;703;51.162;13.574;2023-11-18T22:03:17;4.20;99.90
1417;DHT22;703;51.162;13.574;2023-11-18T22:05:42;4.30;99.90
1417;DHT22;703;51.162;13.574;2023-11-18T22:08:10;4.30;99.90
1417;DHT22;703;51.162;13.574;2023-11-18T22:10:37;4.30;99.90
1417;DHT22;703;51.162;13.574;2023-11-18T22:13:02;4.30;99.90
1417;DHT22;703;51.162;13.574;2023-11-18T22:15:29;4.30;99.90
1417;DHT22;703;51.162;13.574;2023-11-18T22:17:54;4.30;99.90
1417;DHT22;703;51.162;13.574;2023-11-18T22:20:20;4.30;99.90
1417;DHT22;703;51.162;13.574;2023-11-18T22:22:49;4.30;99.90
1417;DHT22;703;51.162;13.574;2023-11-18T22:25:15;4.30;99.90
1417;DHT22;703;51.162;13.574;2023-11-18T22:27:41;4.30;99.90
1417;DHT22;703;51.162;13.574;2023-11-18T22:30:07;4.10;99.90
1417;DHT22;703;51.162;13.574;2023-11-18T22:32:33;4.20;99.90
1417;DHT22;703;51.162;13.574;2023-11-18T22:35:05;4.30;99.90
1417;DHT22;703;51.162;13.574;2023-11-18T22:37:34;4.20;99.90
1417;DHT22;703;51.162;13.574;2023-11-18T22:40:01;4.20;99.90
1417;DHT22;703;51.162;13.574;2023-11-18T22:42:34;4.00;99.90
1417;DHT22;703;51.162;13.574;2023-11-18T22:45:00;4.10;99.90
1417;DHT22;703;51.162;13.574;2023-11-18T22:47:25;4.00;99.90
1417;DHT22;703;51.162;13.574;2023-11-18T22:49:51;4.20;99.90
1417;DHT22;703;51.162;13.574;2023-11-18T22:52:16;4.00;99.90
1417;DHT22;703;51.162;13.574;2023-11-18T22:54:41;4.00;99.90
1417;DHT22;703;51.162;13.574;2023-11-18T22:57:09;4.00;99.90
1417;DHT22;703;51.162;13.574;2023-11-18T22:59:36;4.00;99.90
1417;DHT22;703;51.162;13.574;2023-11-18T23:02:01;3.90;99.90
1417;DHT22;703;51.162;13.574;2023-11-18T23:04:29;3.90;99.90
1417;DHT22;703;51.162;13.574;2023-11-18T23:06:55;3.90;99.90
1417;DHT22;703;51.162;13.574;2023-11-18T23:09:22;3.90;99.90
1417;DHT22;703;51.162;13.574;2023-11-18T23:11:50;3.90;99.90
1417;DHT22;703;51.162;13.574;2023-11-18T23:14:16;3.80;99.90
1417;DHT22;703;51.162;13.574;2023-11-18T23:16:43;3.70;99.90
1417;DHT22;703;51.162;13.574;2023-11-18T23:19:08;3.70;99.90
1417;DHT22;703;51.162;13.574;2023-11-18T23:21:36;3.70;99.90
1417;DHT22;703;51.162;13.574;2023-11-18T23:24:01;3.70;99.90
1417;DHT22;703;51.162;13.574;2023-11-18T23:26:27;3.70;99.90
1417;DHT22;703;51.162;13.574;2023-11-18T23:28:52;3.60;99.90
1417;DHT22;703;51.162;13.574;2023-11-18T23:31:18;3.60;99.90
1417;DHT22;703;51.162;13.574;2023-11-18T23:33:44;3.70;99.90
1417;DHT22;703;51.162;13.574;2023-11-18T23:36:10;3.70;99.90
1417;DHT22;703;51.162;13.574;2023-11-18T23:38:39;3.60;99.90
1417;DHT22;703;51.162;13.574;2023-11-18T23:41:05;3.60;99.90
1417;DHT22;703;51.162;13.574;2023-11-18T23:43:31;3.70;99.90
1417;DHT22;703;51.162;13.574;2023-11-18T23:46:00;3.70;99.90
1417;DHT22;703;51.162;13.574;2023-11-18T23:48:26;3.80;99.90
1417;DHT22;703;51.162;13.574;2023-11-18T23:50:52;4.20;99.90
1417;DHT22;703;51.162;13.574;2023-11-18T23:53:17;3.70;99.90
1417;DHT22;703;51.162;13.574;2023-11-18T23:58:09;3.80;99.90
